sensor_id;sensor_type;location;lat;lon;timestamp;P1;durP1;ratioP1;P2;durP2;ratioP2
49556;SDS011;35462;45.048;7.666;2022-07-29T00:20:30;3.63;;;2.25;;
49556;SDS011;35462;45.048;7.666;2022-07-29T00:35:46;4.20;;;2.50;;
49556;SDS011;35462;45.048;7.666;2022-07-29T00:51:04;4.30;;;2.90;;
49556;SDS011;35462;45.048;7.666;2022-07-29T01:06:21;4.88;;;2.92;;
49556;SDS011;35462;45.048;7.666;2022-07-29T01:52:34;3.53;;;2.45;;
49556;SDS011;35462;45.048;7.666;2022-07-29T02:07:54;2.88;;;2.22;;
49556;SDS011;35462;45.048;7.666;2022-07-29T02:23:13;3.28;;;2.00;;
49556;SDS011;35462;45.048;7.666;2022-07-29T02:38:33;2.55;;;1.52;;
49556;SDS011;35462;45.048;7.666;2022-07-29T02:54:06;2.72;;;1.90;;
49556;SDS011;35462;45.048;7.666;2022-07-29T03:09:24;2.53;;;1.98;;
49556;SDS011;35462;45.048;7.666;2022-07-29T03:24:41;3.25;;;1.88;;
49556;SDS011;35462;45.048;7.666;2022-07-29T03:40:04;3.13;;;1.70;;
49556;SDS011;35462;45.048;7.666;2022-07-29T04:11:14;3.13;;;2.13;;
49556;SDS011;35462;45.048;7.666;2022-07-29T04:26:38;3.90;;;2.50;;
49556;SDS011;35462;45.048;7.666;2022-07-29T04:41:56;4.00;;;2.10;;
49556;SDS011;35462;45.048;7.666;2022-07-29T04:57:12;4.03;;;2.38;;
49556;SDS011;35462;45.048;7.666;2022-07-29T05:12:27;4.93;;;2.77;;
49556;SDS011;35462;45.048;7.666;2022-07-29T05:27:43;4.60;;;3.50;;
49556;SDS011;35462;45.048;7.666;2022-07-29T05:42:59;5.40;;;3.07;;
49556;SDS011;35462;45.048;7.666;2022-07-29T05:58:15;6.67;;;3.40;;
49556;SDS011;35462;45.048;7.666;2022-07-29T06:13:31;3.83;;;3.20;;
49556;SDS011;35462;45.048;7.666;2022-07-29T06:28:47;6.97;;;3.80;;
49556;SDS011;35462;45.048;7.666;2022-07-29T06:44:03;4.38;;;3.08;;
49556;SDS011;35462;45.048;7.666;2022-07-29T06:59:20;8.00;;;2.60;;
49556;SDS011;35462;45.048;7.666;2022-07-29T07:30:42;5.45;;;2.70;;
49556;SDS011;35462;45.048;7.666;2022-07-29T07:46:00;3.42;;;2.28;;
49556;SDS011;35462;45.048;7.666;2022-07-29T08:01:16;4.00;;;2.47;;
49556;SDS011;35462;45.048;7.666;2022-07-29T08:16:34;3.70;;;2.40;;
49556;SDS011;35462;45.048;7.666;2022-07-29T08:31:50;3.67;;;3.00;;
49556;SDS011;35462;45.048;7.666;2022-07-29T08:47:06;5.70;;;2.85;;
49556;SDS011;35462;45.048;7.666;2022-07-29T09:02:22;4.25;;;2.90;;
49556;SDS011;35462;45.048;7.666;2022-07-29T09:17:42;3.95;;;2.55;;
49556;SDS011;35462;45.048;7.666;2022-07-29T09:32:59;4.25;;;2.60;;
49556;SDS011;35462;45.048;7.666;2022-07-29T09:48:19;9.70;;;3.65;;
49556;SDS011;35462;45.048;7.666;2022-07-29T10:19:08;5.40;;;3.47;;
49556;SDS011;35462;45.048;7.666;2022-07-29T10:34:30;4.00;;;3.17;;
49556;SDS011;35462;45.048;7.666;2022-07-29T10:50:04;6.00;;;4.15;;
49556;SDS011;35462;45.048;7.666;2022-07-29T11:05:20;6.10;;;4.22;;
49556;SDS011;35462;45.048;7.666;2022-07-29T11:51:30;16.10;;;4.25;;
49556;SDS011;35462;45.048;7.666;2022-07-29T12:06:52;5.78;;;4.13;;
49556;SDS011;35462;45.048;7.666;2022-07-29T12:22:10;7.65;;;5.95;;
49556;SDS011;35462;45.048;7.666;2022-07-29T12:37:26;7.97;;;4.88;;
49556;SDS011;35462;45.048;7.666;2022-07-29T12:52:42;6.85;;;5.45;;
49556;SDS011;35462;45.048;7.666;2022-07-29T13:08:10;7.28;;;4.80;;
49556;SDS011;35462;45.048;7.666;2022-07-29T13:23:28;9.23;;;4.32;;
49556;SDS011;35462;45.048;7.666;2022-07-29T13:38:50;7.97;;;5.30;;
49556;SDS011;35462;45.048;7.666;2022-07-29T13:54:08;6.82;;;5.97;;
49556;SDS011;35462;45.048;7.666;2022-07-29T14:09:24;9.55;;;5.35;;
49556;SDS011;35462;45.048;7.666;2022-07-29T14:24:53;5.55;;;4.95;;
49556;SDS011;35462;45.048;7.666;2022-07-29T14:40:09;8.27;;;5.40;;
49556;SDS011;35462;45.048;7.666;2022-07-29T14:55:25;7.80;;;6.50;;
49556;SDS011;35462;45.048;7.666;2022-07-29T15:10:41;11.20;;;6.45;;
49556;SDS011;35462;45.048;7.666;2022-07-29T15:25:57;8.55;;;6.03;;
49556;SDS011;35462;45.048;7.666;2022-07-29T15:41:16;4.78;;;2.47;;
49556;SDS011;35462;45.048;7.666;2022-07-29T15:56:32;3.05;;;1.70;;
49556;SDS011;35462;45.048;7.666;2022-07-29T16:27:05;3.87;;;2.20;;
49556;SDS011;35462;45.048;7.666;2022-07-29T16:42:21;2.38;;;1.17;;
49556;SDS011;35462;45.048;7.666;2022-07-29T16:57:37;6.10;;;1.80;;
49556;SDS011;35462;45.048;7.666;2022-07-29T17:28:09;4.95;;;2.75;;
49556;SDS011;35462;45.048;7.666;2022-07-29T17:58:41;3.28;;;2.00;;
49556;SDS011;35462;45.048;7.666;2022-07-29T18:13:57;3.50;;;1.87;;
49556;SDS011;35462;45.048;7.666;2022-07-29T18:29:13;2.77;;;1.67;;
49556;SDS011;35462;45.048;7.666;2022-07-29T18:59:44;2.42;;;1.98;;
49556;SDS011;35462;45.048;7.666;2022-07-29T19:15:00;3.37;;;2.00;;
49556;SDS011;35462;45.048;7.666;2022-07-29T19:30:16;6.83;;;2.03;;
49556;SDS011;35462;45.048;7.666;2022-07-29T20:16:07;2.28;;;1.27;;
49556;SDS011;35462;45.048;7.666;2022-07-29T20:31:23;6.75;;;2.05;;
49556;SDS011;35462;45.048;7.666;2022-07-29T20:46:39;4.30;;;2.37;;
49556;SDS011;35462;45.048;7.666;2022-07-29T21:01:55;4.87;;;2.47;;
49556;SDS011;35462;45.048;7.666;2022-07-29T21:17:11;4.23;;;3.00;;
49556;SDS011;35462;45.048;7.666;2022-07-29T21:32:27;3.87;;;2.20;;
49556;SDS011;35462;45.048;7.666;2022-07-29T21:47:43;2.77;;;1.33;;
49556;SDS011;35462;45.048;7.666;2022-07-29T22:03:00;4.60;;;1.90;;
49556;SDS011;35462;45.048;7.666;2022-07-29T22:18:16;2.60;;;1.48;;
49556;SDS011;35462;45.048;7.666;2022-07-29T22:33:32;4.10;;;3.40;;
49556;SDS011;35462;45.048;7.666;2022-07-29T22:48:48;6.45;;;3.50;;
49556;SDS011;35462;45.048;7.666;2022-07-29T23:04:04;5.68;;;4.10;;
49556;SDS011;35462;45.048;7.666;2022-07-29T23:19:21;4.77;;;3.60;;
49556;SDS011;35462;45.048;7.666;2022-07-29T23:34:36;5.17;;;3.80;;
49556;SDS011;35462;45.048;7.666;2022-07-29T23:49:52;4.93;;;3.65;;
